sensor_id;sensor_type;location;lat;lon;timestamp;temperature;humidity
9095;DHT22;4583;49.796;9.902;2023-06-24T00:03:29;18.90;96.00
9095;DHT22;4583;49.796;9.902;2023-06-24T00:13:31;18.80;96.20
9095;DHT22;4583;49.796;9.902;2023-06-24T00:23:33;18.60;96.50
9095;DHT22;4583;49.796;9.902;2023-06-24T00:33:37;18.60;96.80
9095;DHT22;4583;49.796;9.902;2023-06-24T00:43:39;18.40;97.20
9095;DHT22;4583;49.796;9.902;2023-06-24T00:53:41;18.40;97.20
9095;DHT22;4583;49.796;9.902;2023-06-24T01:03:43;18.40;97.30
9095;DHT22;4583;49.796;9.902;2023-06-24T01:13:45;18.20;97.60
9095;DHT22;4583;49.796;9.902;2023-06-24T01:34:22;18.10;97.80
9095;DHT22;4583;49.796;9.902;2023-06-24T01:44:27;17.90;98.10
9095;DHT22;4583;49.796;9.902;2023-06-24T01:54:31;17.70;98.40
9095;DHT22;4583;49.796;9.902;2023-06-24T02:04:34;17.50;98.60
9095;DHT22;4583;49.796;9.902;2023-06-24T02:14:36;17.30;98.90
9095;DHT22;4583;49.796;9.902;2023-06-24T02:24:39;17.30;99.00
9095;DHT22;4583;49.796;9.902;2023-06-24T02:34:42;17.10;99.00
9095;DHT22;4583;49.796;9.902;2023-06-24T02:44:44;17.00;99.30
9095;DHT22;4583;49.796;9.902;2023-06-24T02:54:46;16.90;99.50
9095;DHT22;4583;49.796;9.902;2023-06-24T03:04:49;16.70;99.60
9095;DHT22;4583;49.796;9.902;2023-06-24T03:14:51;16.70;99.80
9095;DHT22;4583;49.796;9.902;2023-06-24T03:24:53;16.80;99.80
9095;DHT22;4583;49.796;9.902;2023-06-24T03:34:55;16.70;99.80
9095;DHT22;4583;49.796;9.902;2023-06-24T03:44:56;16.70;99.90
9095;DHT22;4583;49.796;9.902;2023-06-24T03:54:58;16.80;99.90
9095;DHT22;4583;49.796;9.902;2023-06-24T04:05:00;16.80;99.90
9095;DHT22;4583;49.796;9.902;2023-06-24T04:15:05;16.80;99.90
9095;DHT22;4583;49.796;9.902;2023-06-24T04:25:08;16.80;99.90
9095;DHT22;4583;49.796;9.902;2023-06-24T04:35:09;16.90;99.90
9095;DHT22;4583;49.796;9.902;2023-06-24T04:45:11;17.00;99.90
9095;DHT22;4583;49.796;9.902;2023-06-24T04:55:13;17.30;99.90
9095;DHT22;4583;49.796;9.902;2023-06-24T05:05:15;17.50;99.90
9095;DHT22;4583;49.796;9.902;2023-06-24T05:15:17;17.80;99.90
9095;DHT22;4583;49.796;9.902;2023-06-24T05:25:20;18.10;99.90
9095;DHT22;4583;49.796;9.902;2023-06-24T05:35:21;18.30;99.90
9095;DHT22;4583;49.796;9.902;2023-06-24T05:45:23;18.60;99.60
9095;DHT22;4583;49.796;9.902;2023-06-24T05:55:25;18.70;99.70
9095;DHT22;4583;49.796;9.902;2023-06-24T06:05:27;19.10;99.30
9095;DHT22;4583;49.796;9.902;2023-06-24T06:15:28;19.40;98.90
9095;DHT22;4583;49.796;9.902;2023-06-24T06:25:30;19.60;98.50
9095;DHT22;4583;49.796;9.902;2023-06-24T06:35:32;19.80;98.10
9095;DHT22;4583;49.796;9.902;2023-06-24T06:45:35;20.20;97.90
9095;DHT22;4583;49.796;9.902;2023-06-24T07:15:43;20.50;97.40
9095;DHT22;4583;49.796;9.902;2023-06-24T07:25:45;21.50;94.70
9095;DHT22;4583;49.796;9.902;2023-06-24T07:35:47;21.80;93.70
9095;DHT22;4583;49.796;9.902;2023-06-24T07:45:49;22.20;90.70
9095;DHT22;4583;49.796;9.902;2023-06-24T07:55:50;22.30;90.80
9095;DHT22;4583;49.796;9.902;2023-06-24T08:05:52;22.40;89.10
9095;DHT22;4583;49.796;9.902;2023-06-24T08:15:54;22.90;87.70
9095;DHT22;4583;49.796;9.902;2023-06-24T08:25:56;23.10;86.70
9095;DHT22;4583;49.796;9.902;2023-06-24T08:36:16;23.30;84.60
9095;DHT22;4583;49.796;9.902;2023-06-24T08:46:19;23.60;82.00
9095;DHT22;4583;49.796;9.902;2023-06-24T08:56:21;23.80;79.70
9095;DHT22;4583;49.796;9.902;2023-06-24T09:06:23;23.80;75.60
9095;DHT22;4583;49.796;9.902;2023-06-24T09:16:25;23.90;73.40
9095;DHT22;4583;49.796;9.902;2023-06-24T09:26:28;24.10;71.80
9095;DHT22;4583;49.796;9.902;2023-06-24T09:36:33;24.40;70.60
9095;DHT22;4583;49.796;9.902;2023-06-24T09:46:36;24.50;65.90
9095;DHT22;4583;49.796;9.902;2023-06-24T09:56:43;24.70;63.90
9095;DHT22;4583;49.796;9.902;2023-06-24T10:06:48;24.70;61.90
9095;DHT22;4583;49.796;9.902;2023-06-24T10:16:50;25.10;60.80
9095;DHT22;4583;49.796;9.902;2023-06-24T10:26:52;25.20;59.00
9095;DHT22;4583;49.796;9.902;2023-06-24T10:39:48;25.30;58.00
9095;DHT22;4583;49.796;9.902;2023-06-24T10:49:51;25.40;58.30
9095;DHT22;4583;49.796;9.902;2023-06-24T10:59:57;25.40;57.20
9095;DHT22;4583;49.796;9.902;2023-06-24T11:10:02;25.50;57.00
9095;DHT22;4583;49.796;9.902;2023-06-24T11:20:13;25.70;56.10
9095;DHT22;4583;49.796;9.902;2023-06-24T11:30:16;25.90;55.10
9095;DHT22;4583;49.796;9.902;2023-06-24T11:40:19;26.00;54.80
9095;DHT22;4583;49.796;9.902;2023-06-24T11:50:26;26.10;54.60
9095;DHT22;4583;49.796;9.902;2023-06-24T12:00:30;25.90;55.00
9095;DHT22;4583;49.796;9.902;2023-06-24T12:10:33;26.10;55.00
9095;DHT22;4583;49.796;9.902;2023-06-24T12:20:36;26.50;54.00
9095;DHT22;4583;49.796;9.902;2023-06-24T12:30:39;27.00;52.50
9095;DHT22;4583;49.796;9.902;2023-06-24T12:40:42;27.20;50.60
9095;DHT22;4583;49.796;9.902;2023-06-24T12:50:44;27.40;49.00
9095;DHT22;4583;49.796;9.902;2023-06-24T13:00:46;27.50;48.40
9095;DHT22;4583;49.796;9.902;2023-06-24T13:10:47;27.50;48.40
9095;DHT22;4583;49.796;9.902;2023-06-24T13:20:49;27.60;48.20
9095;DHT22;4583;49.796;9.902;2023-06-24T13:30:52;27.50;48.20
9095;DHT22;4583;49.796;9.902;2023-06-24T13:40:56;27.70;48.20
9095;DHT22;4583;49.796;9.902;2023-06-24T13:50:57;27.90;48.10
9095;DHT22;4583;49.796;9.902;2023-06-24T14:00:59;28.10;47.50
9095;DHT22;4583;49.796;9.902;2023-06-24T14:11:02;28.20;47.60
9095;DHT22;4583;49.796;9.902;2023-06-24T14:21:05;28.20;47.70
9095;DHT22;4583;49.796;9.902;2023-06-24T14:31:07;28.20;47.50
9095;DHT22;4583;49.796;9.902;2023-06-24T14:41:09;27.90;47.50
9095;DHT22;4583;49.796;9.902;2023-06-24T14:51:10;29.10;46.10
9095;DHT22;4583;49.796;9.902;2023-06-24T15:01:12;29.20;45.60
9095;DHT22;4583;49.796;9.902;2023-06-24T15:11:14;29.80;44.40
9095;DHT22;4583;49.796;9.902;2023-06-24T15:21:16;28.90;45.10
9095;DHT22;4583;49.796;9.902;2023-06-24T15:31:36;28.90;45.60
9095;DHT22;4583;49.796;9.902;2023-06-24T15:41:38;29.50;45.00
9095;DHT22;4583;49.796;9.902;2023-06-24T15:51:39;29.00;45.70
9095;DHT22;4583;49.796;9.902;2023-06-24T16:01:41;29.80;44.60
9095;DHT22;4583;49.796;9.902;2023-06-24T16:11:44;30.50;44.50
9095;DHT22;4583;49.796;9.902;2023-06-24T16:21:46;34.20;40.10
9095;DHT22;4583;49.796;9.902;2023-06-24T16:31:48;37.20;36.80
9095;DHT22;4583;49.796;9.902;2023-06-24T16:41:50;36.20;36.30
9095;DHT22;4583;49.796;9.902;2023-06-24T16:51:51;33.00;39.00
9095;DHT22;4583;49.796;9.902;2023-06-24T17:01:53;32.20;39.40
9095;DHT22;4583;49.796;9.902;2023-06-24T17:11:55;32.00;39.70
9095;DHT22;4583;49.796;9.902;2023-06-24T17:21:57;33.40;38.50
9095;DHT22;4583;49.796;9.902;2023-06-24T17:31:58;37.80;34.40
9095;DHT22;4583;49.796;9.902;2023-06-24T17:42:00;38.50;33.60
9095;DHT22;4583;49.796;9.902;2023-06-24T17:52:02;41.50;30.40
9095;DHT22;4583;49.796;9.902;2023-06-24T18:02:04;41.60;29.50
9095;DHT22;4583;49.796;9.902;2023-06-24T18:12:06;38.20;31.50
9095;DHT22;4583;49.796;9.902;2023-06-24T18:22:08;33.20;36.90
9095;DHT22;4583;49.796;9.902;2023-06-24T18:32:09;30.80;39.70
9095;DHT22;4583;49.796;9.902;2023-06-24T18:42:11;29.40;41.30
9095;DHT22;4583;49.796;9.902;2023-06-24T18:52:13;28.50;43.10
9095;DHT22;4583;49.796;9.902;2023-06-24T19:02:15;27.80;44.60
9095;DHT22;4583;49.796;9.902;2023-06-24T19:12:17;27.20;45.60
9095;DHT22;4583;49.796;9.902;2023-06-24T19:22:19;26.80;47.10
9095;DHT22;4583;49.796;9.902;2023-06-24T19:32:20;26.30;49.60
9095;DHT22;4583;49.796;9.902;2023-06-24T19:42:22;25.90;51.00
9095;DHT22;4583;49.796;9.902;2023-06-24T19:52:24;25.40;52.80
9095;DHT22;4583;49.796;9.902;2023-06-24T20:02:26;25.00;54.90
9095;DHT22;4583;49.796;9.902;2023-06-24T20:12:28;24.70;56.00
9095;DHT22;4583;49.796;9.902;2023-06-24T20:22:30;24.40;57.50
9095;DHT22;4583;49.796;9.902;2023-06-24T20:32:32;24.00;58.70
9095;DHT22;4583;49.796;9.902;2023-06-24T20:42:33;23.60;60.30
9095;DHT22;4583;49.796;9.902;2023-06-24T20:52:35;23.30;61.60
9095;DHT22;4583;49.796;9.902;2023-06-24T21:12:39;23.20;63.80
9095;DHT22;4583;49.796;9.902;2023-06-24T21:22:46;22.70;66.40
9095;DHT22;4583;49.796;9.902;2023-06-24T21:32:48;22.40;68.10
9095;DHT22;4583;49.796;9.902;2023-06-24T21:42:50;22.30;69.40
9095;DHT22;4583;49.796;9.902;2023-06-24T21:52:51;22.10;70.60
9095;DHT22;4583;49.796;9.902;2023-06-24T22:02:53;22.00;72.00
9095;DHT22;4583;49.796;9.902;2023-06-24T22:12:56;21.80;73.60
9095;DHT22;4583;49.796;9.902;2023-06-24T22:22:58;21.60;75.40
9095;DHT22;4583;49.796;9.902;2023-06-24T22:33:00;21.40;77.70
9095;DHT22;4583;49.796;9.902;2023-06-24T22:43:02;21.30;78.90
9095;DHT22;4583;49.796;9.902;2023-06-24T22:53:04;21.00;80.50
9095;DHT22;4583;49.796;9.902;2023-06-24T23:03:06;20.90;82.20
9095;DHT22;4583;49.796;9.902;2023-06-24T23:13:08;20.70;83.80
9095;DHT22;4583;49.796;9.902;2023-06-24T23:23:10;20.60;85.00
9095;DHT22;4583;49.796;9.902;2023-06-24T23:33:16;20.60;86.20
9095;DHT22;4583;49.796;9.902;2023-06-24T23:43:21;20.40;87.80
9095;DHT22;4583;49.796;9.902;2023-06-24T23:53:22;20.30;89.10
